sensor_id;sensor_type;location;lat;lon;timestamp;noise_LAeq;noise_LA_min;noise_LA_max;noise_LA01;noise_LA95
48967;Laerm;46511;53.148;8.204;2023-05-10T00:01:31;42.07;39.58;52.37;;
48967;Laerm;46511;53.148;8.204;2023-05-10T00:03:57;42.14;39.34;44.87;;
48967;Laerm;46511;53.148;8.204;2023-05-10T00:06:28;42.25;39.70;47.42;;
48967;Laerm;46511;53.148;8.204;2023-05-10T00:08:59;50.65;39.34;65.43;;
48967;Laerm;46511;53.148;8.204;2023-05-10T00:11:31;48.07;39.21;62.72;;
48967;Laerm;46511;53.148;8.204;2023-05-10T00:14:02;42.10;38.67;47.96;;
48967;Laerm;46511;53.148;8.204;2023-05-10T00:16:33;41.99;39.35;45.30;;
48967;Laerm;46511;53.148;8.204;2023-05-10T00:19:05;42.22;39.70;46.69;;
48967;Laerm;46511;53.148;8.204;2023-05-10T00:21:36;41.91;38.67;45.30;;
48967;Laerm;46511;53.148;8.204;2023-05-10T00:24:07;41.47;38.81;45.54;;
48967;Laerm;46511;53.148;8.204;2023-05-10T00:26:38;41.40;38.52;50.80;;
48967;Laerm;46511;53.148;8.204;2023-05-10T00:29:05;41.59;39.21;57.61;;
48967;Laerm;46511;53.148;8.204;2023-05-10T00:31:36;41.83;39.70;57.28;;
48967;Laerm;46511;53.148;8.204;2023-05-10T00:34:07;42.39;39.70;52.34;;
48967;Laerm;46511;53.148;8.204;2023-05-10T00:36:38;42.08;39.46;49.25;;
48967;Laerm;46511;53.148;8.204;2023-05-10T00:39:10;42.36;40.13;48.38;;
48967;Laerm;46511;53.148;8.204;2023-05-10T00:41:41;44.14;41.14;54.49;;
48967;Laerm;46511;53.148;8.204;2023-05-10T00:44:12;51.27;42.98;78.64;;
48967;Laerm;46511;53.148;8.204;2023-05-10T00:46:44;51.96;47.28;69.88;;
48967;Laerm;46511;53.148;8.204;2023-05-10T00:49:16;46.47;43.14;55.88;;
48967;Laerm;46511;53.148;8.204;2023-05-10T00:51:48;43.66;40.80;54.77;;
48967;Laerm;46511;53.148;8.204;2023-05-10T00:54:20;43.79;40.98;57.91;;
48967;Laerm;46511;53.148;8.204;2023-05-10T00:56:51;44.00;40.33;50.66;;
48967;Laerm;46511;53.148;8.204;2023-05-10T00:59:18;42.64;40.33;51.04;;
48967;Laerm;46511;53.148;8.204;2023-05-10T01:01:50;41.96;39.70;49.79;;
48967;Laerm;46511;53.148;8.204;2023-05-10T01:04:22;41.79;39.34;64.28;;
48967;Laerm;46511;53.148;8.204;2023-05-10T01:06:56;42.39;39.99;47.61;;
48967;Laerm;46511;53.148;8.204;2023-05-10T01:09:28;62.38;40.71;76.37;;
48967;Laerm;46511;53.148;8.204;2023-05-10T01:12:00;41.67;39.21;48.08;;
48967;Laerm;46511;53.148;8.204;2023-05-10T01:14:33;42.11;39.46;48.96;;
48967;Laerm;46511;53.148;8.204;2023-05-10T01:17:05;42.34;40.43;53.82;;
48967;Laerm;46511;53.148;8.204;2023-05-10T01:19:37;54.54;41.61;73.22;;
48967;Laerm;46511;53.148;8.204;2023-05-10T01:22:39;44.48;41.68;53.38;;
48967;Laerm;46511;53.148;8.204;2023-05-10T01:27:56;43.51;40.98;49.02;;
48967;Laerm;46511;53.148;8.204;2023-05-10T01:36:19;41.71;39.57;50.29;;
48967;Laerm;46511;53.148;8.204;2023-05-10T01:39:11;42.06;39.34;65.95;;
48967;Laerm;46511;53.148;8.204;2023-05-10T01:41:54;41.88;39.58;48.85;;
48967;Laerm;46511;53.148;8.204;2023-05-10T01:47:25;44.19;40.13;53.01;;
48967;Laerm;46511;53.148;8.204;2023-05-10T01:50:02;41.72;39.46;50.38;;
48967;Laerm;46511;53.148;8.204;2023-05-10T01:52:38;48.19;39.34;63.36;;
48967;Laerm;46511;53.148;8.204;2023-05-10T01:55:15;41.88;38.95;50.06;;
48967;Laerm;46511;53.148;8.204;2023-05-10T01:57:52;41.74;39.08;49.57;;
48967;Laerm;46511;53.148;8.204;2023-05-10T02:00:25;42.25;40.33;49.40;;
48967;Laerm;46511;53.148;8.204;2023-05-10T02:02:52;42.70;40.03;48.51;;
48967;Laerm;46511;53.148;8.204;2023-05-10T02:05:24;42.67;40.62;48.99;;
48967;Laerm;46511;53.148;8.204;2023-05-10T02:07:56;42.87;40.98;48.64;;
48967;Laerm;46511;53.148;8.204;2023-05-10T02:10:29;42.99;40.71;59.39;;
48967;Laerm;46511;53.148;8.204;2023-05-10T02:13:02;42.58;40.43;50.23;;
48967;Laerm;46511;53.148;8.204;2023-05-10T02:15:34;42.88;40.89;51.41;;
48967;Laerm;46511;53.148;8.204;2023-05-10T02:18:09;42.80;40.53;54.13;;
48967;Laerm;46511;53.148;8.204;2023-05-10T02:20:43;43.91;40.80;54.66;;
48967;Laerm;46511;53.148;8.204;2023-05-10T02:23:17;46.32;39.81;65.43;;
48967;Laerm;46511;53.148;8.204;2023-05-10T02:25:49;51.10;40.03;68.82;;
48967;Laerm;46511;53.148;8.204;2023-05-10T02:28:24;48.36;39.21;67.74;;
48967;Laerm;46511;53.148;8.204;2023-05-10T02:30:57;51.76;39.34;70.95;;
48967;Laerm;46511;53.148;8.204;2023-05-10T02:33:30;47.36;40.53;68.63;;
48967;Laerm;46511;53.148;8.204;2023-05-10T02:36:02;51.17;40.43;71.21;;
48967;Laerm;46511;53.148;8.204;2023-05-10T02:38:36;53.54;40.98;73.96;;
48967;Laerm;46511;53.148;8.204;2023-05-10T02:41:09;48.11;40.98;67.66;;
48967;Laerm;46511;53.148;8.204;2023-05-10T02:43:37;61.27;41.38;70.73;;
48967;Laerm;46511;53.148;8.204;2023-05-10T02:46:10;56.29;42.03;71.36;;
48967;Laerm;46511;53.148;8.204;2023-05-10T02:48:41;55.01;42.29;70.90;;
48967;Laerm;46511;53.148;8.204;2023-05-10T02:51:16;55.90;42.76;72.70;;
48967;Laerm;46511;53.148;8.204;2023-05-10T02:53:49;57.06;43.14;71.52;;
48967;Laerm;46511;53.148;8.204;2023-05-10T02:56:36;57.73;44.15;72.46;;
48967;Laerm;46511;53.148;8.204;2023-05-10T02:59:10;54.82;43.68;70.47;;
48967;Laerm;46511;53.148;8.204;2023-05-10T03:01:42;57.60;45.48;72.38;;
48967;Laerm;46511;53.148;8.204;2023-05-10T03:04:13;58.45;45.01;70.51;;
48967;Laerm;46511;53.148;8.204;2023-05-10T03:06:44;56.34;44.47;70.25;;
48967;Laerm;46511;53.148;8.204;2023-05-10T03:09:16;58.02;44.27;70.21;;
48967;Laerm;46511;53.148;8.204;2023-05-10T03:15:00;55.78;43.44;74.11;;
48967;Laerm;46511;53.148;8.204;2023-05-10T03:20:28;54.14;44.43;73.94;;
48967;Laerm;46511;53.148;8.204;2023-05-10T03:23:13;60.20;43.04;77.16;;
48967;Laerm;46511;53.148;8.204;2023-05-10T03:25:52;56.95;43.39;75.60;;
48967;Laerm;46511;53.148;8.204;2023-05-10T03:28:24;57.90;44.23;74.56;;
48967;Laerm;46511;53.148;8.204;2023-05-10T03:30:57;57.44;44.23;76.31;;
48967;Laerm;46511;53.148;8.204;2023-05-10T03:33:30;58.64;44.54;76.35;;
48967;Laerm;46511;53.148;8.204;2023-05-10T03:36:01;61.95;43.99;78.36;;
48967;Laerm;46511;53.148;8.204;2023-05-10T03:38:33;62.80;44.43;78.34;;
48967;Laerm;46511;53.148;8.204;2023-05-10T03:41:04;57.83;47.38;75.82;;
48967;Laerm;46511;53.148;8.204;2023-05-10T03:43:35;49.81;47.34;57.60;;
48967;Laerm;46511;53.148;8.204;2023-05-10T03:46:07;57.36;47.67;73.15;;
48967;Laerm;46511;53.148;8.204;2023-05-10T03:48:38;56.41;47.32;76.03;;
48967;Laerm;46511;53.148;8.204;2023-05-10T03:51:10;58.11;48.18;81.46;;
48967;Laerm;46511;53.148;8.204;2023-05-10T03:53:41;54.76;50.81;67.08;;
48967;Laerm;46511;53.148;8.204;2023-05-10T03:56:12;56.53;50.68;68.72;;
48967;Laerm;46511;53.148;8.204;2023-05-10T03:58:44;58.26;46.93;72.48;;
48967;Laerm;46511;53.148;8.204;2023-05-10T04:01:15;52.31;46.62;66.78;;
48967;Laerm;46511;53.148;8.204;2023-05-10T04:03:46;56.98;45.17;72.75;;
48967;Laerm;46511;53.148;8.204;2023-05-10T04:06:18;58.47;45.30;70.10;;
48967;Laerm;46511;53.148;8.204;2023-05-10T04:08:49;56.75;45.20;68.08;;
48967;Laerm;46511;53.148;8.204;2023-05-10T04:11:20;58.24;44.27;76.53;;
48967;Laerm;46511;53.148;8.204;2023-05-10T04:13:52;54.47;45.66;75.98;;
48967;Laerm;46511;53.148;8.204;2023-05-10T04:16:24;56.03;46.40;70.41;;
48967;Laerm;46511;53.148;8.204;2023-05-10T04:18:55;51.86;45.69;66.48;;
48967;Laerm;46511;53.148;8.204;2023-05-10T04:21:26;55.00;48.29;71.71;;
48967;Laerm;46511;53.148;8.204;2023-05-10T04:23:58;59.41;48.85;73.11;;
48967;Laerm;46511;53.148;8.204;2023-05-10T04:26:29;55.40;48.13;68.55;;
48967;Laerm;46511;53.148;8.204;2023-05-10T04:29:00;53.23;47.08;67.21;;
48967;Laerm;46511;53.148;8.204;2023-05-10T04:31:32;59.97;46.84;74.44;;
48967;Laerm;46511;53.148;8.204;2023-05-10T04:34:03;54.59;46.48;67.72;;
48967;Laerm;46511;53.148;8.204;2023-05-10T04:36:34;57.68;46.18;69.95;;
48967;Laerm;46511;53.148;8.204;2023-05-10T04:39:07;59.22;46.97;73.87;;
48967;Laerm;46511;53.148;8.204;2023-05-10T04:41:39;49.06;45.83;60.80;;
48967;Laerm;46511;53.148;8.204;2023-05-10T04:44:10;61.20;46.33;73.72;;
48967;Laerm;46511;53.148;8.204;2023-05-10T04:46:42;57.70;45.62;72.26;;
48967;Laerm;46511;53.148;8.204;2023-05-10T04:49:13;51.87;45.75;65.19;;
48967;Laerm;46511;53.148;8.204;2023-05-10T04:51:45;58.01;46.15;70.45;;
48967;Laerm;46511;53.148;8.204;2023-05-10T04:54:16;56.71;45.63;68.91;;
48967;Laerm;46511;53.148;8.204;2023-05-10T04:56:47;59.40;46.40;72.46;;
48967;Laerm;46511;53.148;8.204;2023-05-10T04:59:19;58.62;46.23;70.12;;
48967;Laerm;46511;53.148;8.204;2023-05-10T05:01:50;55.00;45.97;68.61;;
48967;Laerm;46511;53.148;8.204;2023-05-10T05:04:21;59.13;45.89;74.36;;
48967;Laerm;46511;53.148;8.204;2023-05-10T05:06:54;59.05;46.38;69.50;;
48967;Laerm;46511;53.148;8.204;2023-05-10T05:09:26;63.37;46.97;76.91;;
48967;Laerm;46511;53.148;8.204;2023-05-10T05:11:57;57.36;44.59;69.61;;
48967;Laerm;46511;53.148;8.204;2023-05-10T05:14:29;59.60;45.94;70.08;;
48967;Laerm;46511;53.148;8.204;2023-05-10T05:17:00;56.53;44.35;70.61;;
48967;Laerm;46511;53.148;8.204;2023-05-10T05:19:31;56.46;45.17;68.45;;
48967;Laerm;46511;53.148;8.204;2023-05-10T05:22:03;57.60;44.58;70.77;;
48967;Laerm;46511;53.148;8.204;2023-05-10T05:24:37;60.32;44.27;74.17;;
48967;Laerm;46511;53.148;8.204;2023-05-10T05:27:12;57.27;44.47;68.73;;
48967;Laerm;46511;53.148;8.204;2023-05-10T05:29:43;61.57;50.77;76.33;;
48967;Laerm;46511;53.148;8.204;2023-05-10T05:32:14;58.70;46.30;68.21;;
48967;Laerm;46511;53.148;8.204;2023-05-10T05:34:46;59.03;45.11;69.57;;
48967;Laerm;46511;53.148;8.204;2023-05-10T05:37:19;57.94;45.48;70.33;;
48967;Laerm;46511;53.148;8.204;2023-05-10T05:39:52;59.13;45.60;69.27;;
48967;Laerm;46511;53.148;8.204;2023-05-10T05:42:23;60.68;46.73;72.82;;
48967;Laerm;46511;53.148;8.204;2023-05-10T05:44:54;60.80;49.28;74.86;;
48967;Laerm;46511;53.148;8.204;2023-05-10T05:47:25;63.45;49.67;86.46;;
48967;Laerm;46511;53.148;8.204;2023-05-10T05:49:57;63.72;46.95;73.68;;
48967;Laerm;46511;53.148;8.204;2023-05-10T05:52:28;59.40;45.11;66.54;;
48967;Laerm;46511;53.148;8.204;2023-05-10T05:54:59;61.00;45.48;70.44;;
48967;Laerm;46511;53.148;8.204;2023-05-10T05:57:31;61.89;46.73;72.42;;
48967;Laerm;46511;53.148;8.204;2023-05-10T06:00:02;60.61;46.10;70.11;;
48967;Laerm;46511;53.148;8.204;2023-05-10T06:02:34;60.99;46.66;70.23;;
48967;Laerm;46511;53.148;8.204;2023-05-10T06:05:05;62.33;48.98;83.18;;
48967;Laerm;46511;53.148;8.204;2023-05-10T06:07:37;61.16;47.08;75.73;;
48967;Laerm;46511;53.148;8.204;2023-05-10T06:10:08;59.93;47.67;74.57;;
48967;Laerm;46511;53.148;8.204;2023-05-10T06:12:40;59.37;46.73;72.05;;
48967;Laerm;46511;53.148;8.204;2023-05-10T06:15:11;60.62;46.28;71.66;;
48967;Laerm;46511;53.148;8.204;2023-05-10T06:17:42;57.80;47.10;70.51;;
48967;Laerm;46511;53.148;8.204;2023-05-10T06:20:15;60.75;49.43;69.38;;
48967;Laerm;46511;53.148;8.204;2023-05-10T06:22:46;61.95;48.49;74.02;;
48967;Laerm;46511;53.148;8.204;2023-05-10T06:25:18;58.69;48.12;67.96;;
48967;Laerm;46511;53.148;8.204;2023-05-10T06:27:49;59.35;44.65;73.24;;
48967;Laerm;46511;53.148;8.204;2023-05-10T06:30:20;60.78;46.64;71.55;;
48967;Laerm;46511;53.148;8.204;2023-05-10T06:32:54;64.22;46.98;77.11;;
48967;Laerm;46511;53.148;8.204;2023-05-10T06:35:26;61.31;48.83;74.94;;
48967;Laerm;46511;53.148;8.204;2023-05-10T06:37:57;62.76;50.98;77.26;;
48967;Laerm;46511;53.148;8.204;2023-05-10T06:40:28;59.02;48.51;68.62;;
48967;Laerm;46511;53.148;8.204;2023-05-10T06:42:59;57.81;46.07;68.86;;
48967;Laerm;46511;53.148;8.204;2023-05-10T06:45:31;59.45;46.33;72.17;;
48967;Laerm;46511;53.148;8.204;2023-05-10T06:48:02;58.24;48.52;72.35;;
48967;Laerm;46511;53.148;8.204;2023-05-10T06:50:33;61.77;48.07;76.24;;
48967;Laerm;46511;53.148;8.204;2023-05-10T06:53:05;59.77;48.81;69.40;;
48967;Laerm;46511;53.148;8.204;2023-05-10T06:55:36;59.29;43.68;79.45;;
48967;Laerm;46511;53.148;8.204;2023-05-10T06:58:07;59.83;44.69;74.44;;
48967;Laerm;46511;53.148;8.204;2023-05-10T07:00:39;56.65;44.58;68.03;;
48967;Laerm;46511;53.148;8.204;2023-05-10T07:03:11;53.40;43.90;65.74;;
48967;Laerm;46511;53.148;8.204;2023-05-10T07:05:42;59.11;44.69;67.34;;
48967;Laerm;46511;53.148;8.204;2023-05-10T07:08:13;56.75;45.45;69.71;;
48967;Laerm;46511;53.148;8.204;2023-05-10T07:10:45;58.07;43.86;68.71;;
48967;Laerm;46511;53.148;8.204;2023-05-10T07:13:16;54.43;43.29;67.07;;
48967;Laerm;46511;53.148;8.204;2023-05-10T07:15:48;57.91;43.86;78.27;;
48967;Laerm;46511;53.148;8.204;2023-05-10T07:18:19;57.65;43.34;67.22;;
48967;Laerm;46511;53.148;8.204;2023-05-10T07:20:50;58.91;44.90;73.13;;
48967;Laerm;46511;53.148;8.204;2023-05-10T07:23:22;56.65;43.58;74.41;;
48967;Laerm;46511;53.148;8.204;2023-05-10T07:25:53;56.96;44.35;73.81;;
48967;Laerm;46511;53.148;8.204;2023-05-10T07:28:25;60.15;43.81;71.40;;
48967;Laerm;46511;53.148;8.204;2023-05-10T07:30:56;61.38;43.72;77.02;;
48967;Laerm;46511;53.148;8.204;2023-05-10T07:33:27;57.34;44.54;67.18;;
48967;Laerm;46511;53.148;8.204;2023-05-10T07:35:59;54.89;44.03;66.61;;
48967;Laerm;46511;53.148;8.204;2023-05-10T07:38:30;56.26;43.99;72.81;;
48967;Laerm;46511;53.148;8.204;2023-05-10T07:41:01;58.71;44.65;74.48;;
48967;Laerm;46511;53.148;8.204;2023-05-10T07:43:33;56.66;44.31;70.28;;
48967;Laerm;46511;53.148;8.204;2023-05-10T07:46:04;57.83;44.80;69.72;;
48967;Laerm;46511;53.148;8.204;2023-05-10T07:48:36;57.55;43.44;68.73;;
48967;Laerm;46511;53.148;8.204;2023-05-10T07:51:08;55.88;44.31;67.48;;
48967;Laerm;46511;53.148;8.204;2023-05-10T07:53:40;56.07;44.35;66.01;;
48967;Laerm;46511;53.148;8.204;2023-05-10T07:56:29;61.00;44.31;75.11;;
48967;Laerm;46511;53.148;8.204;2023-05-10T07:59:02;54.52;43.90;67.12;;
48967;Laerm;46511;53.148;8.204;2023-05-10T08:01:34;55.49;44.76;65.35;;
48967;Laerm;46511;53.148;8.204;2023-05-10T08:04:06;55.13;43.58;66.31;;
48967;Laerm;46511;53.148;8.204;2023-05-10T08:06:39;57.97;44.76;68.38;;
48967;Laerm;46511;53.148;8.204;2023-05-10T08:09:10;54.65;44.11;70.00;;
48967;Laerm;46511;53.148;8.204;2023-05-10T08:11:42;56.38;43.77;69.08;;
48967;Laerm;46511;53.148;8.204;2023-05-10T08:14:13;53.27;43.44;65.83;;
48967;Laerm;46511;53.148;8.204;2023-05-10T08:16:44;57.91;44.58;68.96;;
48967;Laerm;46511;53.148;8.204;2023-05-10T08:19:15;57.84;44.03;72.93;;
48967;Laerm;46511;53.148;8.204;2023-05-10T08:21:50;60.02;44.97;70.01;;
48967;Laerm;46511;53.148;8.204;2023-05-10T08:24:21;57.35;43.80;71.37;;
48967;Laerm;46511;53.148;8.204;2023-05-10T08:26:53;56.69;43.24;67.85;;
48967;Laerm;46511;53.148;8.204;2023-05-10T08:29:24;56.71;43.55;66.35;;
48967;Laerm;46511;53.148;8.204;2023-05-10T08:31:55;52.39;43.72;65.00;;
48967;Laerm;46511;53.148;8.204;2023-05-10T08:34:27;57.78;44.03;66.03;;
48967;Laerm;46511;53.148;8.204;2023-05-10T08:36:58;57.62;44.03;67.31;;
48967;Laerm;46511;53.148;8.204;2023-05-10T08:39:29;70.29;57.97;85.80;;
48967;Laerm;46511;53.148;8.204;2023-05-10T08:42:05;60.64;44.23;78.85;;
48967;Laerm;46511;53.148;8.204;2023-05-10T08:44:37;56.39;43.86;67.87;;
48967;Laerm;46511;53.148;8.204;2023-05-10T08:47:10;58.77;51.43;72.89;;
48967;Laerm;46511;53.148;8.204;2023-05-10T08:49:43;61.04;54.02;70.11;;
48967;Laerm;46511;53.148;8.204;2023-05-10T08:52:19;60.96;52.46;75.70;;
48967;Laerm;46511;53.148;8.204;2023-05-10T08:54:51;63.08;51.40;75.43;;
48967;Laerm;46511;53.148;8.204;2023-05-10T08:57:18;68.32;54.69;89.40;;
48967;Laerm;46511;53.148;8.204;2023-05-10T08:59:50;59.10;44.83;72.62;;
48967;Laerm;46511;53.148;8.204;2023-05-10T09:02:23;57.61;45.07;72.35;;
48967;Laerm;46511;53.148;8.204;2023-05-10T09:04:54;56.81;44.19;73.92;;
48967;Laerm;46511;53.148;8.204;2023-05-10T09:07:25;57.70;43.86;70.81;;
48967;Laerm;46511;53.148;8.204;2023-05-10T09:09:57;56.56;45.30;66.70;;
48967;Laerm;46511;53.148;8.204;2023-05-10T09:12:29;60.41;48.07;68.77;;
48967;Laerm;46511;53.148;8.204;2023-05-10T09:15:01;59.13;45.54;69.52;;
48967;Laerm;46511;53.148;8.204;2023-05-10T09:17:33;59.35;47.10;70.69;;
48967;Laerm;46511;53.148;8.204;2023-05-10T09:20:05;59.64;47.10;72.71;;
48967;Laerm;46511;53.148;8.204;2023-05-10T09:22:37;60.65;54.21;75.85;;
48967;Laerm;46511;53.148;8.204;2023-05-10T09:25:14;59.44;54.43;67.33;;
48967;Laerm;46511;53.148;8.204;2023-05-10T09:27:47;60.59;54.71;71.81;;
48967;Laerm;46511;53.148;8.204;2023-05-10T09:30:28;61.79;54.71;71.51;;
48967;Laerm;46511;53.148;8.204;2023-05-10T09:33:00;60.12;54.62;68.47;;
48967;Laerm;46511;53.148;8.204;2023-05-10T09:35:32;60.52;49.39;75.22;;
48967;Laerm;46511;53.148;8.204;2023-05-10T09:38:04;60.02;45.83;78.67;;
48967;Laerm;46511;53.148;8.204;2023-05-10T09:40:36;60.20;54.43;74.75;;
48967;Laerm;46511;53.148;8.204;2023-05-10T09:43:07;65.72;55.09;81.96;;
48967;Laerm;46511;53.148;8.204;2023-05-10T09:45:41;63.00;49.74;76.84;;
48967;Laerm;46511;53.148;8.204;2023-05-10T09:48:12;60.00;46.50;78.89;;
48967;Laerm;46511;53.148;8.204;2023-05-10T09:50:43;58.59;45.89;71.42;;
48967;Laerm;46511;53.148;8.204;2023-05-10T09:53:14;63.49;45.17;73.26;;
48967;Laerm;46511;53.148;8.204;2023-05-10T09:55:47;59.94;46.05;70.07;;
48967;Laerm;46511;53.148;8.204;2023-05-10T09:58:20;59.81;46.71;71.57;;
48967;Laerm;46511;53.148;8.204;2023-05-10T10:00:47;61.30;46.28;78.86;;
48967;Laerm;46511;53.148;8.204;2023-05-10T10:03:23;57.18;44.76;69.14;;
48967;Laerm;46511;53.148;8.204;2023-05-10T10:05:55;62.47;45.63;75.67;;
48967;Laerm;46511;53.148;8.204;2023-05-10T10:08:27;55.19;43.77;65.48;;
48967;Laerm;46511;53.148;8.204;2023-05-10T10:10:58;61.06;47.59;72.35;;
48967;Laerm;46511;53.148;8.204;2023-05-10T10:13:30;58.14;53.57;65.21;;
48967;Laerm;46511;53.148;8.204;2023-05-10T10:16:03;56.74;44.27;70.15;;
48967;Laerm;46511;53.148;8.204;2023-05-10T10:18:36;55.65;44.47;67.22;;
48967;Laerm;46511;53.148;8.204;2023-05-10T10:21:06;59.03;46.05;69.33;;
48967;Laerm;46511;53.148;8.204;2023-05-10T10:23:39;57.68;45.07;69.33;;
48967;Laerm;46511;53.148;8.204;2023-05-10T10:26:06;57.15;45.42;66.96;;
48967;Laerm;46511;53.148;8.204;2023-05-10T10:28:50;58.25;45.48;70.89;;
48967;Laerm;46511;53.148;8.204;2023-05-10T10:31:36;57.78;44.65;69.66;;
48967;Laerm;46511;53.148;8.204;2023-05-10T10:34:25;56.18;44.73;67.80;;
48967;Laerm;46511;53.148;8.204;2023-05-10T10:36:57;61.95;45.99;75.34;;
48967;Laerm;46511;53.148;8.204;2023-05-10T10:39:29;60.37;45.88;74.53;;
48967;Laerm;46511;53.148;8.204;2023-05-10T10:42:00;57.32;43.77;74.77;;
48967;Laerm;46511;53.148;8.204;2023-05-10T10:44:37;59.30;45.60;73.49;;
48967;Laerm;46511;53.148;8.204;2023-05-10T10:52:39;62.34;46.59;77.08;;
48967;Laerm;46511;53.148;8.204;2023-05-10T10:55:17;57.32;44.54;68.73;;
48967;Laerm;46511;53.148;8.204;2023-05-10T10:57:57;59.16;50.54;68.13;;
48967;Laerm;46511;53.148;8.204;2023-05-10T11:00:36;65.79;44.27;80.41;;
48967;Laerm;46511;53.148;8.204;2023-05-10T11:03:11;57.47;44.94;71.26;;
48967;Laerm;46511;53.148;8.204;2023-05-10T11:05:49;60.03;45.60;68.99;;
48967;Laerm;46511;53.148;8.204;2023-05-10T11:08:31;58.19;45.91;67.75;;
48967;Laerm;46511;53.148;8.204;2023-05-10T11:11:05;58.96;53.05;67.07;;
48967;Laerm;46511;53.148;8.204;2023-05-10T11:13:43;60.25;53.38;74.71;;
48967;Laerm;46511;53.148;8.204;2023-05-10T11:18:52;61.37;54.45;74.99;;
48967;Laerm;46511;53.148;8.204;2023-05-10T11:21:24;58.30;53.64;66.65;;
48967;Laerm;46511;53.148;8.204;2023-05-10T11:23:57;59.64;52.97;68.70;;
48967;Laerm;46511;53.148;8.204;2023-05-10T11:26:34;60.34;48.37;76.56;;
48967;Laerm;46511;53.148;8.204;2023-05-10T11:29:05;62.88;45.04;86.05;;
48967;Laerm;46511;53.148;8.204;2023-05-10T11:31:45;54.42;45.77;68.04;;
48967;Laerm;46511;53.148;8.204;2023-05-10T11:34:28;57.12;44.54;66.24;;
48967;Laerm;46511;53.148;8.204;2023-05-10T11:37:04;59.08;44.65;71.26;;
48967;Laerm;46511;53.148;8.204;2023-05-10T11:39:36;58.60;45.17;71.35;;
48967;Laerm;46511;53.148;8.204;2023-05-10T11:42:07;57.16;45.86;68.56;;
48967;Laerm;46511;53.148;8.204;2023-05-10T11:44:40;58.67;46.18;71.95;;
48967;Laerm;46511;53.148;8.204;2023-05-10T11:47:12;63.40;45.99;74.98;;
48967;Laerm;46511;53.148;8.204;2023-05-10T11:49:44;58.56;44.80;70.53;;
48967;Laerm;46511;53.148;8.204;2023-05-10T11:52:18;56.50;44.94;66.11;;
48967;Laerm;46511;53.148;8.204;2023-05-10T11:54:53;59.20;46.05;71.48;;
48967;Laerm;46511;53.148;8.204;2023-05-10T11:57:26;58.19;44.94;72.40;;
48967;Laerm;46511;53.148;8.204;2023-05-10T11:59:58;56.25;45.54;72.14;;
48967;Laerm;46511;53.148;8.204;2023-05-10T12:02:29;55.75;44.90;72.95;;
48967;Laerm;46511;53.148;8.204;2023-05-10T12:05:02;58.12;45.99;69.63;;
48967;Laerm;46511;53.148;8.204;2023-05-10T12:07:29;58.79;45.57;71.85;;
48967;Laerm;46511;53.148;8.204;2023-05-10T12:12:46;57.52;44.03;68.18;;
48967;Laerm;46511;53.148;8.204;2023-05-10T12:15:23;64.73;47.44;82.86;;
48967;Laerm;46511;53.148;8.204;2023-05-10T12:17:56;57.77;44.83;67.45;;
48967;Laerm;46511;53.148;8.204;2023-05-10T12:20:28;55.45;44.35;64.45;;
48967;Laerm;46511;53.148;8.204;2023-05-10T12:22:59;62.27;47.98;74.67;;
48967;Laerm;46511;53.148;8.204;2023-05-10T12:25:31;56.07;45.51;65.07;;
48967;Laerm;46511;53.148;8.204;2023-05-10T12:28:04;55.24;44.69;70.02;;
48967;Laerm;46511;53.148;8.204;2023-05-10T12:30:36;58.91;45.04;70.68;;
48967;Laerm;46511;53.148;8.204;2023-05-10T12:33:11;60.31;44.07;77.94;;
48967;Laerm;46511;53.148;8.204;2023-05-10T12:35:49;56.30;44.27;67.65;;
48967;Laerm;46511;53.148;8.204;2023-05-10T12:38:44;64.71;45.17;77.12;;
48967;Laerm;46511;53.148;8.204;2023-05-10T12:41:18;68.28;53.32;81.95;;
48967;Laerm;46511;53.148;8.204;2023-05-10T12:43:51;71.28;52.37;87.79;;
48967;Laerm;46511;53.148;8.204;2023-05-10T12:46:22;68.01;51.17;78.21;;
48967;Laerm;46511;53.148;8.204;2023-05-10T12:48:56;66.03;44.83;77.40;;
48967;Laerm;46511;53.148;8.204;2023-05-10T12:51:27;57.91;44.39;70.77;;
48967;Laerm;46511;53.148;8.204;2023-05-10T12:53:58;56.68;43.99;69.43;;
48967;Laerm;46511;53.148;8.204;2023-05-10T12:56:29;55.52;44.03;67.99;;
48967;Laerm;46511;53.148;8.204;2023-05-10T12:59:01;56.30;45.77;66.93;;
48967;Laerm;46511;53.148;8.204;2023-05-10T13:01:32;59.80;47.83;67.12;;
48967;Laerm;46511;53.148;8.204;2023-05-10T13:04:03;58.44;44.15;69.31;;
48967;Laerm;46511;53.148;8.204;2023-05-10T13:06:35;59.72;46.84;76.79;;
48967;Laerm;46511;53.148;8.204;2023-05-10T13:09:06;59.36;46.48;70.40;;
48967;Laerm;46511;53.148;8.204;2023-05-10T13:11:33;56.92;45.94;70.10;;
48967;Laerm;46511;53.148;8.204;2023-05-10T13:14:04;55.70;43.81;66.88;;
48967;Laerm;46511;53.148;8.204;2023-05-10T13:16:31;65.15;44.39;77.68;;
48967;Laerm;46511;53.148;8.204;2023-05-10T13:19:02;60.77;47.55;73.86;;
48967;Laerm;46511;53.148;8.204;2023-05-10T13:21:33;60.32;45.42;80.42;;
48967;Laerm;46511;53.148;8.204;2023-05-10T13:24:05;62.77;44.51;76.80;;
48967;Laerm;46511;53.148;8.204;2023-05-10T13:26:36;70.39;62.49;77.92;;
48967;Laerm;46511;53.148;8.204;2023-05-10T13:29:08;63.37;47.88;72.47;;
48967;Laerm;46511;53.148;8.204;2023-05-10T13:31:39;67.47;55.60;76.48;;
48967;Laerm;46511;53.148;8.204;2023-05-10T13:34:10;60.69;46.13;69.73;;
48967;Laerm;46511;53.148;8.204;2023-05-10T13:36:42;56.78;45.75;66.86;;
48967;Laerm;46511;53.148;8.204;2023-05-10T13:39:13;61.05;49.97;70.66;;
48967;Laerm;46511;53.148;8.204;2023-05-10T13:41:44;61.05;47.22;71.99;;
48967;Laerm;46511;53.148;8.204;2023-05-10T13:44:16;62.60;49.77;71.84;;
48967;Laerm;46511;53.148;8.204;2023-05-10T13:46:47;60.12;52.41;73.08;;
48967;Laerm;46511;53.148;8.204;2023-05-10T13:49:18;65.14;60.27;81.48;;
48967;Laerm;46511;53.148;8.204;2023-05-10T13:51:50;64.91;60.09;73.33;;
48967;Laerm;46511;53.148;8.204;2023-05-10T13:54:23;62.41;56.44;73.21;;
48967;Laerm;46511;53.148;8.204;2023-05-10T13:56:54;63.53;47.81;71.33;;
48967;Laerm;46511;53.148;8.204;2023-05-10T13:59:20;59.43;44.80;80.54;;
48967;Laerm;46511;53.148;8.204;2023-05-10T14:01:52;59.79;46.38;79.34;;
48967;Laerm;46511;53.148;8.204;2023-05-10T14:04:24;61.01;52.95;76.19;;
48967;Laerm;46511;53.148;8.204;2023-05-10T14:06:50;60.19;46.18;71.39;;
48967;Laerm;46511;53.148;8.204;2023-05-10T14:09:23;59.69;47.40;70.86;;
48967;Laerm;46511;53.148;8.204;2023-05-10T14:11:55;56.53;46.82;71.60;;
48967;Laerm;46511;53.148;8.204;2023-05-10T14:14:26;62.58;48.25;77.22;;
48967;Laerm;46511;53.148;8.204;2023-05-10T14:17:00;60.05;47.02;88.39;;
48967;Laerm;46511;53.148;8.204;2023-05-10T14:19:31;56.78;46.48;67.90;;
48967;Laerm;46511;53.148;8.204;2023-05-10T14:22:04;57.79;46.10;70.37;;
48967;Laerm;46511;53.148;8.204;2023-05-10T14:24:35;56.33;43.94;64.54;;
48967;Laerm;46511;53.148;8.204;2023-05-10T14:27:02;55.74;43.81;65.49;;
48967;Laerm;46511;53.148;8.204;2023-05-10T14:29:28;56.53;43.68;67.10;;
48967;Laerm;46511;53.148;8.204;2023-05-10T14:31:59;62.04;43.90;73.81;;
48967;Laerm;46511;53.148;8.204;2023-05-10T14:34:31;62.16;52.61;72.62;;
48967;Laerm;46511;53.148;8.204;2023-05-10T14:37:02;58.34;47.22;75.23;;
48967;Laerm;46511;53.148;8.204;2023-05-10T14:39:33;59.38;46.87;70.08;;
48967;Laerm;46511;53.148;8.204;2023-05-10T14:42:05;67.13;48.49;85.38;;